Time;durP1;ratioP1;P1;durP2;ratioP2;P2;SDS_P1;SDS_P2;PMS_P1;PMS_P2;Temp;Humidity;BMP_temperature;BMP_pressure;BME280_temperature;BME280_humidity;BME280_pressure;Samples;Min_cycle;Max_cycle;Signal;HPM_P1;HPM_P2
2023/01/20 00:01:22;;;;;;;19.53;11.10;;;0.40;99.90;;;;;;5014679;28;20879;-45
2023/01/20 00:03:49;;;;;;;20.07;11.73;;;0.50;99.90;;;;;;5014878;28;20430;-42
2023/01/20 00:06:14;;;;;;;20.13;12.33;;;0.50;99.90;;;;;;5015552;28;20422;-45
2023/01/20 00:08:40;;;;;;;19.30;11.10;;;0.50;99.90;;;;;;5014879;28;20514;-44
2023/01/20 00:11:09;;;;;;;20.73;11.50;;;0.50;99.90;;;;;;5014890;28;20198;-45
2023/01/20 00:13:35;;;;;;;16.40;8.93;;;0.60;99.90;;;;;;5014591;28;20674;-44
2023/01/20 00:16:05;;;;;;;17.40;9.73;;;0.70;99.90;;;;;;5014809;28;20462;-43
2023/01/20 00:18:32;;;;;;;19.43;10.77;;;0.70;99.90;;;;;;5014605;28;20798;-43
2023/01/20 00:21:18;;;;;;;21.83;11.37;;;0.80;99.90;;;;;;5015652;28;20447;-44
2023/01/20 00:23:45;;;;;;;23.53;12.03;;;0.80;99.90;;;;;;5030016;28;20424;-45
2023/01/20 00:26:16;;;;;;;21.27;11.80;;;0.80;99.90;;;;;;5024018;28;20430;-45
2023/01/20 00:28:42;;;;;;;21.90;11.20;;;0.80;99.90;;;;;;5014761;28;20457;-43
2023/01/20 00:31:19;;;;;;;21.13;11.63;;;0.80;99.90;;;;;;5014400;28;20529;-44
2023/01/20 00:33:46;;;;;;;17.77;11.70;;;0.80;99.90;;;;;;5015235;28;20396;-43
2023/01/20 00:36:13;;;;;;;15.13;9.27;;;0.80;99.90;;;;;;4996606;28;20462;-45
2023/01/20 00:38:39;;;;;;;20.67;12.23;;;0.80;99.90;;;;;;5014129;28;20971;-45
2023/01/20 00:41:05;;;;;;;20.30;11.30;;;0.80;99.90;;;;;;5014422;28;20457;-45
2023/01/20 00:43:31;;;;;;;21.83;11.53;;;0.90;99.90;;;;;;5014089;28;20277;-44
2023/01/20 00:45:57;;;;;;;22.07;11.87;;;0.80;99.90;;;;;;5014695;28;20426;-45
2023/01/20 00:48:22;;;;;;;20.17;11.17;;;0.80;99.90;;;;;;5014425;28;20190;-44
2023/01/20 00:50:48;;;;;;;23.40;11.73;;;0.90;99.90;;;;;;5013921;28;20180;-43
2023/01/20 00:53:14;;;;;;;22.60;12.63;;;0.90;99.90;;;;;;5013835;28;20252;-45
2023/01/20 00:55:39;;;;;;;20.17;10.47;;;0.90;99.90;;;;;;5013869;28;20692;-43
2023/01/20 00:58:05;;;;;;;19.17;11.13;;;0.90;99.90;;;;;;5014167;28;20188;-45
2023/01/20 01:00:30;;;;;;;24.40;12.23;;;0.90;99.90;;;;;;5013830;28;20211;-44
2023/01/20 01:02:56;;;;;;;21.93;11.40;;;0.90;99.90;;;;;;5013739;28;20310;-44
2023/01/20 01:05:22;;;;;;;25.33;10.83;;;0.90;99.90;;;;;;4995375;28;20597;-44
2023/01/20 01:07:48;;;;;;;23.13;12.70;;;0.90;99.90;;;;;;5013920;28;20252;-43
2023/01/20 01:10:13;;;;;;;17.63;9.97;;;1.00;99.90;;;;;;5014015;28;20182;-43
2023/01/20 01:12:39;;;;;;;21.17;10.90;;;0.90;99.90;;;;;;5013571;28;20238;-45
2023/01/20 01:15:05;;;;;;;18.77;10.17;;;1.00;99.90;;;;;;5013563;28;20211;-46
2023/01/20 01:17:30;;;;;;;18.83;10.80;;;1.00;99.90;;;;;;5013868;28;20185;-44
2023/01/20 01:19:56;;;;;;;24.17;11.43;;;1.00;99.90;;;;;;5013863;28;20189;-45
2023/01/20 01:22:22;;;;;;;22.23;13.10;;;1.00;99.90;;;;;;5013846;28;20196;-44
2023/01/20 01:24:47;;;;;;;20.87;11.17;;;1.00;99.90;;;;;;5013729;28;20639;-44
2023/01/20 01:27:13;;;;;;;21.77;12.37;;;1.00;99.90;;;;;;5014220;28;20682;-45
2023/01/20 01:29:39;;;;;;;28.97;11.93;;;1.00;99.90;;;;;;5013482;28;20186;-44
2023/01/20 01:32:05;;;;;;;21.13;11.03;;;1.00;99.90;;;;;;5013727;28;20953;-43
2023/01/20 01:34:32;;;;;;;24.27;10.53;;;1.00;99.90;;;;;;5014137;28;20187;-44
2023/01/20 01:36:58;;;;;;;26.47;14.57;;;1.00;99.90;;;;;;4980090;28;20208;-44
2023/01/20 01:39:23;;;;;;;24.00;13.10;;;1.00;99.90;;;;;;5014020;28;20654;-46
2023/01/20 01:41:49;;;;;;;26.13;12.60;;;1.00;99.90;;;;;;5014133;28;20196;-51
2023/01/20 01:44:15;;;;;;;22.50;11.37;;;1.10;99.90;;;;;;5013471;28;20652;-49
2023/01/20 01:46:41;;;;;;;20.73;11.27;;;1.10;99.90;;;;;;5013368;28;20368;-49
2023/01/20 01:49:14;;;;;;;26.10;13.90;;;1.00;99.90;;;;;;5013396;28;20182;-49
2023/01/20 01:51:46;;;;;;;26.70;13.57;;;1.10;99.90;;;;;;5013603;28;20465;-50
2023/01/20 01:54:17;;;;;;;24.37;12.73;;;1.00;99.90;;;;;;5013998;28;20176;-51
2023/01/20 01:56:44;;;;;;;24.60;13.17;;;1.00;99.90;;;;;;5013252;28;20943;-50
2023/01/20 01:59:12;;;;;;;27.60;13.77;;;1.00;99.90;;;;;;5013231;28;20747;-50
2023/01/20 02:01:41;;;;;;;30.77;15.10;;;1.00;99.90;;;;;;5013183;28;20192;-50
2023/01/20 02:04:11;;;;;;;25.13;13.50;;;1.10;99.90;;;;;;4995742;28;20242;-51
2023/01/20 02:06:44;;;;;;;25.63;12.63;;;1.00;99.90;;;;;;5013365;28;20188;-49
2023/01/20 02:09:10;;;;;;;23.90;13.20;;;1.00;99.90;;;;;;5013174;28;20411;-50
2023/01/20 02:11:44;;;;;;;27.40;14.00;;;1.00;99.90;;;;;;4995709;28;20265;-50
2023/01/20 02:14:10;;;;;;;23.67;13.17;;;1.00;99.90;;;;;;5013584;28;20162;-50
2023/01/20 02:16:56;;;;;;;22.87;12.60;;;0.90;99.90;;;;;;5013278;28;20207;-49
2023/01/20 02:19:37;;;;;;;23.40;13.17;;;0.90;99.90;;;;;;5016933;28;20161;-50
2023/01/20 02:22:29;;;;;;;23.90;13.03;;;0.90;99.90;;;;;;5016678;28;20203;-48
2023/01/20 02:25:12;;;;;;;25.53;12.60;;;0.90;99.90;;;;;;5016716;28;20246;-49
2023/01/20 02:28:22;;;;;;;20.60;10.20;;;0.90;99.90;;;;;;5016641;28;20391;-50
2023/01/20 02:31:06;;;;;;;19.47;11.17;;;0.90;99.90;;;;;;5016575;28;20234;-49
2023/01/20 02:33:47;;;;;;;26.30;13.07;;;0.90;99.90;;;;;;5016617;28;20440;-50
2023/01/20 02:36:22;;;;;;;21.03;11.77;;;0.80;99.90;;;;;;5016671;28;20813;-50
2023/01/20 02:39:05;;;;;;;24.67;13.10;;;0.80;99.90;;;;;;5016335;28;20626;-51
2023/01/20 02:41:53;;;;;;;24.23;13.30;;;0.80;99.90;;;;;;5016514;28;20406;-49
2023/01/20 02:44:29;;;;;;;23.93;11.60;;;0.80;99.90;;;;;;5016445;28;20415;-49
2023/01/20 02:47:31;;;;;;;25.83;14.50;;;0.80;99.90;;;;;;5016343;28;20410;-49
2023/01/20 02:50:21;;;;;;;26.67;11.57;;;0.80;99.90;;;;;;5016495;28;20411;-50
2023/01/20 02:52:58;;;;;;;23.97;13.70;;;0.80;99.90;;;;;;4998732;28;20501;-50
2023/01/20 02:55:43;;;;;;;28.00;13.40;;;0.80;99.90;;;;;;5016542;28;20734;-50
2023/01/20 02:58:53;;;;;;;28.40;13.93;;;0.80;99.90;;;;;;5016570;28;20398;-50
2023/01/20 03:01:35;;;;;;;33.53;14.17;;;0.80;99.90;;;;;;4994595;28;20183;-50
2023/01/20 03:04:03;;;;;;;28.60;14.13;;;0.80;99.90;;;;;;5015550;28;20426;-52
2023/01/20 03:06:45;;;;;;;32.40;14.70;;;0.80;99.90;;;;;;5016499;28;20721;-50
2023/01/20 03:09:17;;;;;;;24.97;13.77;;;0.80;99.90;;;;;;5019451;28;20398;-49
2023/01/20 03:11:51;;;;;;;21.97;11.17;;;0.70;99.90;;;;;;5006514;28;20959;-50
2023/01/20 03:14:17;;;;;;;26.23;13.40;;;0.70;99.90;;;;;;5017756;28;20176;-51
2023/01/20 03:16:46;;;;;;;27.10;13.57;;;0.70;99.90;;;;;;5015848;28;20212;-50
2023/01/20 03:19:13;;;;;;;24.03;12.87;;;0.70;99.90;;;;;;4998157;28;20188;-51
2023/01/20 03:21:39;;;;;;;21.83;12.03;;;0.70;99.90;;;;;;5015547;28;20427;-50
2023/01/20 03:24:05;;;;;;;19.83;11.37;;;0.60;99.90;;;;;;5015652;28;20250;-51
2023/01/20 03:26:32;;;;;;;25.30;13.00;;;0.70;99.90;;;;;;4997913;28;20212;-50
2023/01/20 03:29:03;;;;;;;22.53;12.27;;;0.70;99.90;;;;;;5014426;28;20190;-50
2023/01/20 03:31:35;;;;;;;25.07;12.30;;;0.70;99.90;;;;;;5015192;28;20211;-52
2023/01/20 03:34:03;;;;;;;24.50;12.17;;;0.60;99.90;;;;;;5015894;28;20166;-51
2023/01/20 03:36:31;;;;;;;26.07;12.97;;;0.60;99.90;;;;;;5015723;28;20624;-51
2023/01/20 03:38:58;;;;;;;22.97;12.10;;;0.60;99.90;;;;;;5015422;28;20183;-50
2023/01/20 03:41:32;;;;;;;22.37;12.73;;;0.60;99.90;;;;;;4997522;28;20422;-50
2023/01/20 03:44:21;;;;;;;22.87;12.63;;;0.50;99.90;;;;;;5015555;28;20191;-49
2023/01/20 03:46:56;;;;;;;22.53;11.50;;;0.50;99.90;;;;;;5015226;28;20478;-49
2023/01/20 03:49:35;;;;;;;22.20;12.40;;;0.40;99.90;;;;;;5015361;28;20399;-49
2023/01/20 03:52:11;;;;;;;21.73;12.13;;;0.30;99.90;;;;;;5015141;28;20513;-49
2023/01/20 03:54:47;;;;;;;24.07;12.50;;;0.30;99.90;;;;;;5015110;28;20172;-49
2023/01/20 03:57:18;;;;;;;25.27;13.53;;;0.20;99.90;;;;;;5015057;28;20764;-50
2023/01/20 03:59:48;;;;;;;21.60;12.90;;;0.20;99.90;;;;;;4997185;28;20515;-50
2023/01/20 04:02:13;;;;;;;23.57;13.43;;;0.20;99.90;;;;;;5014708;28;20203;-51
2023/01/20 04:04:42;;;;;;;22.27;12.17;;;0.20;99.90;;;;;;5015382;28;20801;-50
2023/01/20 04:07:13;;;;;;;20.73;12.13;;;0.20;99.90;;;;;;5015024;28;20187;-49
2023/01/20 04:09:45;;;;;;;24.63;10.53;;;0.20;99.90;;;;;;5015087;28;20406;-48
2023/01/20 04:12:10;;;;;;;23.07;12.63;;;0.30;99.90;;;;;;5014761;28;20490;-50
2023/01/20 04:14:36;;;;;;;25.60;13.47;;;0.30;99.90;;;;;;5014872;28;20180;-49
2023/01/20 04:17:03;;;;;;;22.60;12.80;;;0.40;99.90;;;;;;5014510;28;20211;-50
2023/01/20 04:19:29;;;;;;;22.73;12.40;;;0.50;99.90;;;;;;5014674;28;20543;-50
2023/01/20 04:22:32;;;;;;;23.93;12.30;;;0.50;99.90;;;;;;5014695;28;20449;-50
2023/01/20 04:25:10;;;;;;;18.63;11.43;;;0.50;99.90;;;;;;5009427;28;20203;-50
2023/01/20 04:27:36;;;;;;;19.43;12.10;;;0.50;99.90;;;;;;5014743;28;20482;-50
2023/01/20 04:30:01;;;;;;;22.27;11.70;;;0.60;99.90;;;;;;5014772;28;20537;-48
2023/01/20 04:32:27;;;;;;;22.40;12.73;;;0.60;99.90;;;;;;5014420;28;20249;-49
2023/01/20 04:34:53;;;;;;;21.77;12.70;;;0.60;99.90;;;;;;4996740;28;20215;-51
2023/01/20 04:37:18;;;;;;;24.90;12.00;;;0.60;99.90;;;;;;5014099;28;20191;-50
2023/01/20 04:39:44;;;;;;;18.50;10.53;;;0.70;99.90;;;;;;5014422;28;20184;-49
2023/01/20 04:42:10;;;;;;;22.17;11.53;;;1.30;99.90;;;;;;5014422;28;20203;-51
2023/01/20 04:44:36;;;;;;;17.17;11.23;;;0.70;99.90;;;;;;5014105;28;20189;-50
2023/01/20 04:47:01;;;;;;;18.73;9.57;;;0.70;99.90;;;;;;5014233;28;20782;-49
2023/01/20 04:49:27;;;;;;;16.83;9.50;;;0.70;99.90;;;;;;5014162;28;20274;-50
2023/01/20 04:51:53;;;;;;;18.50;10.97;;;0.80;99.90;;;;;;5014009;28;20618;-50
2023/01/20 04:54:19;;;;;;;18.13;10.53;;;0.80;99.90;;;;;;5013983;28;20647;-51
2023/01/20 04:56:46;;;;;;;21.33;11.37;;;0.80;99.90;;;;;;5014040;28;20201;-49
2023/01/20 04:59:12;;;;;;;21.97;13.07;;;0.90;99.90;;;;;;4996206;28;20639;-49
2023/01/20 05:01:37;;;;;;;25.30;12.83;;;0.90;99.90;;;;;;5013998;28;20206;-51
2023/01/20 05:04:03;;;;;;;21.07;11.60;;;0.90;99.90;;;;;;4996353;28;20184;-49
2023/01/20 05:06:28;;;;;;;21.67;13.27;;;0.90;99.90;;;;;;5014520;28;20183;-51
2023/01/20 05:08:54;;;;;;;20.87;12.20;;;0.90;99.90;;;;;;5013729;28;20179;-51
2023/01/20 05:11:19;;;;;;;26.60;13.90;;;0.90;99.90;;;;;;5014095;28;20209;-51
2023/01/20 05:13:45;;;;;;;22.53;12.73;;;0.90;99.90;;;;;;5014082;28;20214;-50
2023/01/20 05:16:11;;;;;;;26.03;14.27;;;0.90;99.90;;;;;;5013817;28;20208;-51
2023/01/20 05:18:37;;;;;;;26.50;14.67;;;0.90;99.90;;;;;;5013786;28;20173;-50
2023/01/20 05:21:04;;;;;;;26.00;15.37;;;0.90;99.90;;;;;;5013828;28;20422;-51
2023/01/20 05:23:30;;;;;;;23.93;12.70;;;0.90;99.90;;;;;;5013547;28;20245;-50
2023/01/20 05:25:55;;;;;;;25.47;14.53;;;0.90;99.90;;;;;;5013525;28;20415;-50
2023/01/20 05:28:21;;;;;;;25.33;14.20;;;1.00;99.90;;;;;;5013574;28;20189;-50
2023/01/20 05:30:47;;;;;;;25.67;13.90;;;1.00;99.90;;;;;;5013583;28;20642;-51
2023/01/20 05:33:13;;;;;;;23.03;14.70;;;0.90;99.90;;;;;;5013543;28;20698;-51
2023/01/20 05:35:38;;;;;;;22.57;13.43;;;1.00;99.90;;;;;;5013756;28;20205;-51
2023/01/20 05:38:04;;;;;;;25.57;14.60;;;1.00;99.90;;;;;;5013590;28;20578;-51
2023/01/20 05:40:29;;;;;;;25.50;14.13;;;0.90;99.90;;;;;;5014073;28;20176;-51
2023/01/20 05:42:59;;;;;;;23.67;12.93;;;0.90;99.90;;;;;;5013944;28;20199;-50
2023/01/20 05:45:24;;;;;;;24.83;13.67;;;1.00;99.90;;;;;;5013684;28;20643;-48
2023/01/20 05:47:55;;;;;;;28.33;13.83;;;1.00;99.90;;;;;;4996099;28;20427;-50
2023/01/20 05:50:20;;;;;;;25.80;13.60;;;1.00;99.90;;;;;;5013612;28;20187;-50
2023/01/20 05:52:46;;;;;;;29.73;15.37;;;1.00;99.90;;;;;;5015809;28;20202;-49
2023/01/20 05:55:11;;;;;;;25.87;14.17;;;1.00;99.90;;;;;;5017016;28;20214;-51
2023/01/20 05:57:37;;;;;;;30.60;14.90;;;1.00;99.90;;;;;;5017445;28;20176;-49
2023/01/20 06:00:04;;;;;;;26.30;14.50;;;0.90;99.90;;;;;;5017397;28;20183;-49
2023/01/20 06:02:30;;;;;;;24.90;14.83;;;1.00;99.90;;;;;;5017622;28;20197;-51
2023/01/20 06:04:56;;;;;;;30.63;14.27;;;1.00;99.90;;;;;;5017366;28;20306;-50
2023/01/20 06:07:21;;;;;;;30.87;15.43;;;1.00;99.90;;;;;;5016936;28;20179;-50
2023/01/20 06:09:47;;;;;;;28.40;14.30;;;0.90;99.90;;;;;;4999622;28;20629;-49
2023/01/20 06:12:12;;;;;;;28.43;14.97;;;1.00;99.90;;;;;;5017036;28;20200;-50
2023/01/20 06:14:38;;;;;;;27.83;14.60;;;1.00;99.90;;;;;;5017263;28;20181;-49
2023/01/20 06:17:03;;;;;;;30.83;14.43;;;1.00;99.90;;;;;;5017310;28;20200;-50
2023/01/20 06:19:29;;;;;;;33.30;14.87;;;1.00;99.90;;;;;;5017123;28;20244;-50
2023/01/20 06:21:55;;;;;;;24.97;14.37;;;1.00;99.90;;;;;;5017206;28;20272;-50
2023/01/20 06:24:20;;;;;;;27.37;14.13;;;1.00;99.90;;;;;;5016953;28;20174;-50
2023/01/20 06:26:49;;;;;;;27.00;14.03;;;1.00;99.90;;;;;;5017158;28;20518;-50
2023/01/20 06:29:14;;;;;;;27.73;13.30;;;1.00;99.90;;;;;;5016747;28;20188;-51
2023/01/20 06:31:40;;;;;;;26.27;14.10;;;1.00;99.90;;;;;;5016694;28;20211;-50
2023/01/20 06:34:06;;;;;;;23.23;11.20;;;1.00;99.90;;;;;;5016502;28;20164;-48
2023/01/20 06:36:31;;;;;;;23.60;13.47;;;1.00;99.90;;;;;;5016311;28;20213;-50
2023/01/20 06:38:57;;;;;;;30.23;12.77;;;1.00;99.90;;;;;;5016698;28;20234;-51
2023/01/20 06:41:23;;;;;;;29.17;13.83;;;1.00;99.90;;;;;;5016907;28;20201;-49
2023/01/20 06:43:50;;;;;;;26.07;13.60;;;1.00;99.90;;;;;;5016238;28;20178;-50
2023/01/20 06:46:16;;;;;;;22.27;13.80;;;1.00;99.90;;;;;;4998656;28;20524;-49
2023/01/20 06:48:43;;;;;;;25.97;14.37;;;1.00;99.90;;;;;;5016263;28;20452;-50
2023/01/20 06:51:15;;;;;;;24.30;13.30;;;1.00;99.90;;;;;;5016149;28;20428;-50
2023/01/20 06:53:40;;;;;;;30.97;15.90;;;1.00;99.90;;;;;;5015959;28;21018;-49
2023/01/20 06:56:08;;;;;;;27.57;14.50;;;1.00;99.90;;;;;;5016200;28;20240;-49
2023/01/20 06:58:33;;;;;;;25.60;14.73;;;1.00;99.90;;;;;;5016152;28;20183;-50
2023/01/20 07:01:10;;;;;;;30.87;16.83;;;1.00;99.90;;;;;;5015973;28;20176;-51
2023/01/20 07:03:36;;;;;;;25.73;15.00;;;1.00;99.90;;;;;;5015768;28;20226;-50
2023/01/20 07:06:06;;;;;;;23.57;13.83;;;1.00;99.90;;;;;;5016208;28;20565;-50
2023/01/20 07:08:31;;;;;;;30.00;15.00;;;1.00;99.90;;;;;;5016285;28;20814;-52
2023/01/20 07:10:57;;;;;;;29.47;14.40;;;1.00;99.90;;;;;;5015893;28;20231;-51
2023/01/20 07:13:23;;;;;;;29.07;15.87;;;1.00;99.90;;;;;;5015593;28;20205;-51
2023/01/20 07:15:48;;;;;;;26.57;15.10;;;1.00;99.90;;;;;;5015970;28;20294;-50
2023/01/20 07:18:14;;;;;;;26.03;14.27;;;1.00;99.90;;;;;;5015556;28;20185;-51
2023/01/20 07:20:40;;;;;;;27.03;13.87;;;1.00;99.90;;;;;;5015522;28;20209;-51
2023/01/20 07:23:06;;;;;;;27.23;14.43;;;1.00;99.90;;;;;;4998000;28;20201;-51
2023/01/20 07:25:31;;;;;;;27.57;14.67;;;1.00;99.90;;;;;;5014310;28;20756;-51
2023/01/20 07:27:57;;;;;;;23.33;13.27;;;1.00;99.90;;;;;;5015505;28;20267;-52
2023/01/20 07:30:23;;;;;;;26.27;14.50;;;0.90;99.90;;;;;;5015464;28;20201;-49
2023/01/20 07:32:49;;;;;;;28.73;15.03;;;0.90;99.90;;;;;;5015247;28;20208;-52
2023/01/20 07:35:14;;;;;;;25.23;14.63;;;0.90;99.90;;;;;;5015903;28;20207;-51
2023/01/20 07:37:40;;;;;;;23.50;14.13;;;0.90;99.90;;;;;;5015355;28;20229;-50
2023/01/20 07:40:06;;;;;;;28.17;15.30;;;0.90;99.90;;;;;;5016264;28;20528;-52
2023/01/20 07:42:32;;;;;;;26.07;14.87;;;0.90;99.90;;;;;;4997847;28;20208;-49
2023/01/20 07:44:58;;;;;;;26.37;13.67;;;1.00;99.90;;;;;;5015170;28;20174;-51
2023/01/20 07:47:23;;;;;;;26.67;16.10;;;0.90;99.90;;;;;;5015066;28;20187;-49
2023/01/20 07:49:49;;;;;;;29.03;16.43;;;1.00;99.90;;;;;;4997550;28;20207;-50
2023/01/20 07:52:14;;;;;;;25.43;15.00;;;1.00;99.90;;;;;;5015220;28;20209;-50
2023/01/20 07:54:40;;;;;;;39.30;15.23;;;1.00;99.90;;;;;;5015013;28;20181;-51
2023/01/20 07:57:07;;;;;;;25.93;14.37;;;1.00;99.90;;;;;;5014901;28;20200;-51
2023/01/20 07:59:33;;;;;;;23.00;14.00;;;1.00;99.90;;;;;;5015173;28;20641;-49
2023/01/20 08:01:58;;;;;;;25.23;14.60;;;1.00;99.90;;;;;;5015144;28;20200;-50
2023/01/20 08:04:24;;;;;;;21.70;14.20;;;1.00;99.90;;;;;;5014780;28;20260;-50
2023/01/20 08:06:49;;;;;;;22.07;12.33;;;1.00;99.90;;;;;;5014788;28;20181;-50
2023/01/20 08:09:15;;;;;;;22.00;13.30;;;1.00;99.90;;;;;;5015599;28;20234;-50
2023/01/20 08:11:41;;;;;;;23.23;13.60;;;1.00;99.90;;;;;;5014808;28;20689;-50
2023/01/20 08:14:06;;;;;;;22.47;13.37;;;1.00;99.90;;;;;;5015041;28;20193;-49
2023/01/20 08:16:32;;;;;;;23.03;13.33;;;1.10;99.90;;;;;;4996614;28;20214;-51
2023/01/20 08:18:58;;;;;;;24.17;13.77;;;1.10;99.90;;;;;;4997709;28;20179;-50
2023/01/20 08:21:26;;;;;;;23.87;12.40;;;1.10;99.90;;;;;;5014921;28;20181;-49
2023/01/20 08:23:54;;;;;;;25.33;13.53;;;1.10;99.90;;;;;;4997077;28;20185;-50
2023/01/20 08:26:20;;;;;;;22.30;12.53;;;1.10;99.90;;;;;;4996558;28;20435;-49
2023/01/20 08:28:46;;;;;;;24.80;12.47;;;1.20;99.90;;;;;;5014555;28;20547;-50
2023/01/20 08:31:15;;;;;;;22.70;12.10;;;1.20;99.90;;;;;;5014163;28;20624;-50
2023/01/20 08:33:42;;;;;;;21.23;11.53;;;1.20;99.90;;;;;;5014398;28;20200;-50
2023/01/20 08:36:14;;;;;;;21.60;13.10;;;1.20;99.90;;;;;;5014584;28;20598;-50
2023/01/20 08:38:40;;;;;;;21.00;11.17;;;1.20;99.90;;;;;;5014196;28;20236;-49
2023/01/20 08:41:12;;;;;;;19.67;12.57;;;1.20;99.90;;;;;;5014255;28;20205;-49
2023/01/20 08:43:38;;;;;;;19.83;11.93;;;1.20;99.90;;;;;;5014226;28;20569;-49
2023/01/20 08:46:08;;;;;;;20.13;11.63;;;1.20;99.90;;;;;;4996544;28;20277;-48
2023/01/20 08:48:34;;;;;;;19.17;11.33;;;1.20;99.90;;;;;;5014347;28;20647;-50
2023/01/20 08:51:08;;;;;;;21.03;11.17;;;1.30;99.90;;;;;;5014043;28;20510;-49
2023/01/20 08:53:34;;;;;;;22.53;12.37;;;1.30;99.90;;;;;;4996474;28;20561;-50
2023/01/20 08:56:01;;;;;;;19.57;12.30;;;1.30;99.90;;;;;;5014100;28;20654;-50
2023/01/20 08:58:28;;;;;;;21.23;11.70;;;1.30;99.90;;;;;;5013852;28;20183;-50
2023/01/20 09:00:54;;;;;;;22.63;13.17;;;1.40;99.90;;;;;;5013902;28;20263;-50
2023/01/20 09:03:20;;;;;;;17.90;11.10;;;1.50;99.90;;;;;;4996244;28;20232;-50
2023/01/20 09:05:46;;;;;;;20.57;11.53;;;1.50;99.90;;;;;;5014077;28;20723;-50
2023/01/20 09:08:13;;;;;;;19.80;10.93;;;1.50;99.90;;;;;;5013818;28;20212;-50
2023/01/20 09:10:38;;;;;;;19.37;10.60;;;1.60;99.90;;;;;;5013711;28;20176;-50
2023/01/20 09:13:04;;;;;;;18.27;10.77;;;1.50;99.90;;;;;;4996053;28;20216;-48
2023/01/20 09:15:29;;;;;;;20.57;10.70;;;1.50;99.90;;;;;;5013630;28;20212;-49
2023/01/20 09:17:55;;;;;;;22.43;11.57;;;1.50;99.90;;;;;;4996104;28;20186;-50
2023/01/20 09:20:20;;;;;;;19.10;10.67;;;1.50;99.90;;;;;;5013896;28;20178;-50
2023/01/20 09:22:46;;;;;;;18.67;10.50;;;1.50;99.90;;;;;;5013639;28;20637;-49
2023/01/20 09:25:12;;;;;;;17.07;10.07;;;1.50;99.90;;;;;;5013830;28;20200;-49
2023/01/20 09:27:37;;;;;;;18.93;10.57;;;1.50;99.90;;;;;;5015760;28;20215;-49
2023/01/20 09:30:03;;;;;;;19.83;10.67;;;1.50;99.90;;;;;;5017597;28;20200;-49
2023/01/20 09:32:29;;;;;;;18.13;10.67;;;1.50;99.90;;;;;;5017789;28;20200;-49
2023/01/20 09:34:55;;;;;;;18.60;10.60;;;1.50;99.90;;;;;;5017659;28;20541;-49
2023/01/20 09:43:53;;;;;;;18.07;11.03;;;1.60;99.90;;;;;;5017637;28;20200;-48
2023/01/20 09:46:19;;;;;;;21.37;10.37;;;1.60;99.90;;;;;;5001710;28;20600;-48
2023/01/20 09:54:44;;;;;;;17.00;10.10;;;1.70;99.90;;;;;;5017530;28;20176;-49
2023/01/20 09:57:12;;;;;;;16.33;9.50;;;1.70;99.90;;;;;;5017380;28;20188;-49
2023/01/20 09:59:51;;;;;;;18.70;10.07;;;1.80;99.90;;;;;;4999519;28;20185;-47
2023/01/20 10:02:22;;;;;;;20.17;10.17;;;1.70;99.90;;;;;;5016913;28;20941;-48
2023/01/20 10:04:56;;;;;;;16.47;9.43;;;1.70;99.90;;;;;;5017038;28;20170;-48
2023/01/20 10:07:43;;;;;;;18.53;10.10;;;1.70;99.90;;;;;;5017264;28;20166;-48
2023/01/20 10:10:18;;;;;;;20.60;9.90;;;1.70;99.90;;;;;;5016966;28;20175;-47
2023/01/20 10:13:13;;;;;;;27.73;10.73;;;1.70;99.90;;;;;;5017019;28;20197;-48
2023/01/20 10:15:44;;;;;;;17.57;10.23;;;1.70;99.90;;;;;;5014543;28;20219;-48
2023/01/20 10:18:13;;;;;;;16.00;9.37;;;1.60;99.90;;;;;;5016736;28;20162;-48
2023/01/20 10:20:45;;;;;;;18.60;10.43;;;1.70;99.90;;;;;;5016683;28;20177;-49
2023/01/20 10:23:23;;;;;;;15.27;9.43;;;1.60;99.90;;;;;;5016743;28;20242;-49
2023/01/20 10:26:05;;;;;;;15.87;10.40;;;1.60;99.90;;;;;;5017028;28;20162;-47
2023/01/20 10:28:40;;;;;;;16.17;9.47;;;1.60;99.90;;;;;;5017253;28;20498;-48
2023/01/20 10:31:06;;;;;;;17.00;9.30;;;1.60;99.90;;;;;;5016488;28;20284;-48
2023/01/20 10:33:39;;;;;;;16.67;8.57;;;1.60;99.90;;;;;;4998837;28;20619;-46
2023/01/20 10:36:22;;;;;;;13.53;8.70;;;1.60;99.90;;;;;;5016637;28;20272;-48
2023/01/20 10:38:57;;;;;;;17.20;9.13;;;1.60;99.90;;;;;;5016307;28;20169;-49
2023/01/20 10:41:40;;;;;;;15.87;8.80;;;1.60;99.90;;;;;;5016190;28;20176;-49
2023/01/20 10:44:12;;;;;;;14.57;8.37;;;1.50;99.90;;;;;;5016875;28;20577;-48
2023/01/20 10:47:11;;;;;;;14.97;8.97;;;1.50;99.90;;;;;;5016292;28;20541;-47
2023/01/20 10:50:01;;;;;;;13.30;7.67;;;1.50;99.90;;;;;;5016439;28;20169;-48
2023/01/20 10:52:44;;;;;;;12.00;6.80;;;1.40;99.90;;;;;;5016450;28;20284;-47
2023/01/20 10:55:21;;;;;;;15.90;8.10;;;1.50;99.90;;;;;;5016279;28;20170;-47
2023/01/20 10:57:52;;;;;;;14.07;7.80;;;1.40;99.90;;;;;;5016036;28;20174;-47
2023/01/20 11:00:24;;;;;;;14.50;8.57;;;1.40;99.90;;;;;;4998417;28;20181;-49
2023/01/20 11:02:51;;;;;;;13.47;8.37;;;1.40;99.90;;;;;;4998343;28;20518;-48
2023/01/20 11:05:18;;;;;;;15.10;8.90;;;1.40;99.90;;;;;;4998278;28;20192;-50
2023/01/20 11:07:45;;;;;;;12.20;8.00;;;1.40;99.90;;;;;;4998518;28;20174;-46
2023/01/20 11:10:14;;;;;;;13.33;8.57;;;1.40;99.90;;;;;;4998234;28;20235;-47
2023/01/20 11:12:41;;;;;;;12.67;7.93;;;1.40;99.90;;;;;;5015578;28;20201;-48
2023/01/20 11:15:20;;;;;;;12.70;8.43;;;1.40;99.90;;;;;;5015735;28;20189;-48
2023/01/20 11:17:46;;;;;;;13.20;7.97;;;1.50;99.90;;;;;;5015895;28;20245;-49
2023/01/20 11:20:20;;;;;;;11.20;7.30;;;1.50;99.90;;;;;;5038718;22;20227;-39
2023/01/20 11:22:48;;;;;;;11.27;7.13;;;1.40;99.90;;;;;;5037466;28;20203;-39
2023/01/20 11:25:26;;;;;;;13.63;7.23;;;1.50;99.90;;;;;;5037537;28;20222;-39
2023/01/20 11:27:52;;;;;;;11.40;7.20;;;1.50;99.90;;;;;;5055676;28;20176;-41
2023/01/20 11:30:31;;;;;;;10.00;6.47;;;1.60;99.90;;;;;;5055490;28;20176;-40
2023/01/20 11:33:19;;;;;;;9.63;6.53;;;1.60;99.90;;;;;;5055461;28;20654;-43
2023/01/20 11:36:06;;;;;;;9.10;6.27;;;1.60;99.90;;;;;;5055695;28;20201;-40
2023/01/20 11:38:44;;;;;;;8.77;5.80;;;1.60;99.90;;;;;;5037247;28;20180;-40
2023/01/20 11:41:25;;;;;;;9.93;6.70;;;1.70;99.90;;;;;;5055244;28;20174;-39
2023/01/20 11:43:54;;;;;;;10.07;6.30;;;1.70;99.90;;;;;;5054960;28;20191;-40
2023/01/20 11:46:31;;;;;;;8.20;5.40;;;1.70;99.90;;;;;;5054928;28;20183;-40
2023/01/20 11:49:23;;;;;;;7.53;5.23;;;1.80;99.90;;;;;;5036525;28;20183;-41
2023/01/20 11:51:54;;;;;;;7.07;4.70;;;1.80;99.90;;;;;;5036668;28;20295;-41
2023/01/20 11:54:24;;;;;;;8.20;4.57;;;1.80;99.90;;;;;;5054954;28;20722;-41
2023/01/20 11:57:03;;;;;;;4.97;3.30;;;1.80;99.90;;;;;;5054564;28;20318;-43
2023/01/20 11:59:34;;;;;;;7.87;4.57;;;1.80;99.90;;;;;;5054671;28;20563;-42
2023/01/20 12:02:22;;;;;;;7.80;5.03;;;1.70;99.90;;;;;;5054905;28;20226;-39
2023/01/20 12:04:55;;;;;;;4.60;3.37;;;1.70;99.90;;;;;;5054552;28;20191;-42
2023/01/20 12:07:46;;;;;;;6.17;4.27;;;1.70;99.90;;;;;;5054359;28;20179;-41
2023/01/20 12:10:22;;;;;;;5.13;3.83;;;1.70;99.90;;;;;;5036926;28;20177;-41
2023/01/20 12:13:15;;;;;;;6.37;4.00;;;1.70;99.90;;;;;;5036341;28;20199;-42
2023/01/20 12:15:45;;;;;;;5.53;3.23;;;1.70;99.90;;;;;;5054341;28;20562;-43
2023/01/20 12:18:19;;;;;;;6.23;3.83;;;1.80;99.90;;;;;;5054143;28;20263;-42
2023/01/20 12:20:49;;;;;;;5.17;3.80;;;1.80;99.90;;;;;;5054226;28;20191;-41
2023/01/20 12:23:23;;;;;;;5.90;3.70;;;1.80;99.90;;;;;;5054197;28;20196;-40
2023/01/20 12:25:55;;;;;;;5.67;3.30;;;1.80;99.90;;;;;;5054156;28;20175;-41
2023/01/20 12:28:28;;;;;;;4.10;3.20;;;1.80;99.90;;;;;;5036200;28;20180;-41
2023/01/20 12:30:58;;;;;;;3.97;2.70;;;1.90;99.90;;;;;;5054360;28;20199;-39
2023/01/20 12:33:29;;;;;;;5.17;3.20;;;1.80;99.90;;;;;;5036330;28;20582;-42
2023/01/20 12:36:13;;;;;;;5.27;3.57;;;1.80;99.90;;;;;;5054083;28;20200;-41
2023/01/20 12:38:52;;;;;;;8.20;4.10;;;1.80;99.90;;;;;;5053740;28;20666;-40
2023/01/20 12:41:53;;;;;;;5.77;4.17;;;1.80;99.90;;;;;;5054005;28;20174;-42
2023/01/20 12:44:25;;;;;;;6.87;4.27;;;1.80;99.90;;;;;;5053817;28;20535;-41
2023/01/20 12:47:18;;;;;;;5.73;4.30;;;1.80;99.90;;;;;;5053972;28;20169;-41
2023/01/20 12:50:08;;;;;;;5.47;3.67;;;1.80;99.90;;;;;;5054171;28;20252;-40
2023/01/20 12:53:04;;;;;;;6.93;4.60;;;1.80;99.90;;;;;;5035649;28;20256;-41
2023/01/20 12:55:47;;;;;;;8.50;4.60;;;1.90;99.90;;;;;;5053435;28;20208;-39
2023/01/20 12:58:45;;;;;;;7.37;4.53;;;1.90;99.90;;;;;;5053844;28;20225;-40
2023/01/20 13:01:15;;;;;;;6.90;4.80;;;1.90;99.90;;;;;;5035595;28;20176;-39
2023/01/20 13:03:41;;;;;;;7.73;5.07;;;1.90;99.90;;;;;;5053428;28;20206;-43
2023/01/20 13:06:31;;;;;;;6.57;4.53;;;1.90;99.90;;;;;;5054624;28;20199;-42
2023/01/20 13:09:29;;;;;;;6.37;4.43;;;1.90;99.90;;;;;;5053778;28;20531;-39
2023/01/20 13:12:24;;;;;;;6.67;4.30;;;1.90;99.90;;;;;;5053618;28;20199;-40